Tiempo atmosférico en la estación meteorológica de Colmenar Viejo, Madrid (1004 m.)



Fecha
DESCASC
Temp. máxima en grados centígrados (hora)
DESCASC
Temp. mínima en grados centígrados (hora)
DESCASC
Temp. media en grados centígrados
DESCASC
Racha de viento máxima en m/sg (hora)
DESCASC
Velocidad máxima media en intervalos de 10 minutos(hora)
DESCASC
Precipitaciones diarias en mm
DESCASC
Precipitaciones de 00:00 a 06:00 en mm
DESCASC
Precipitaciones de 06:00 a 12:00 en mm
DESCASC
Precipitaciones de 12:00 a 18:00 en mm
DESCASC
Precipitaciones de 18:00 a 24:00 en mm
DESCASC
20-06-2018 29.4 (19:30) 17.4 (06:40) 23.4 5.83 (23:50) 2.78 (23:30) 0 0 0 0 0
19-06-2018 28.4 (17:50) 13.1 (06:00) 20.8 9.17 (00:10) 5 (04:00) 0 0 0 0 0
18-06-2018 28.3 (17:20) 16.2 (06:00) 22.3 13.61 (13:10) 5 (23:50) 0 0 0 0 0
17-06-2018 27.6 (18:10) 13.5 (06:30) 20.6 13.33 (23:50) 5 (18:50) 0 0 0 0 0
16-06-2018 27.6 (16:00) 13.7 (07:10) 20.7 7.78 (19:30) 4.17 (00:10) 0 0 0 0 0
15-06-2018 26.6 (18:30) 14.3 (06:30) 20.5 8.33 (17:10) 3.89 (23:59) 0 0 0 0 0
14-06-2018 24.3 (18:00) 8.6 (00:00) 16.4 8.06 (21:50) 3.89 (00:30) 0 0 0 0 0
13-06-2018 21.5 (18:00) 10.3 (07:10) 15.9 8.89 (20:50) 5 (00:50) 0 0 0 0 0
12-06-2018 21 (16:50) 10.1 (05:20) 15.6 11.11 (20:40) 4.72 (22:40) 0 0 0 0 0
11-06-2018 -- (--) -- (--) -- -- (--) -- (--) -- -- -- 1 12.1
10-06-2018 -- (--) -- (--) -- -- (--) -- (--) -- 0 0.7 0 --
09-06-2018 16.9 (14:50) 9.7 (00:00) 13.3 7.22 (14:40) 4.17 (19:00) 0.3 0.1 0 0.2 0
08-06-2018 15.5 (18:00) 11.2 (00:00) 13.3 9.72 (20:10) 5 (20:00) 6.3 0 1.5 0.5 4.3
07-06-2018 19.6 (14:10) 9.7 (00:00) 14.7 9.17 (13:50) 3.61 (15:20) 0 0 0 0 0
06-06-2018 17.9 (19:20) 8.5 (00:00) 13.2 7.22 (19:20) 4.44 (07:50) 2.7 0.3 0.9 1.5 0
05-06-2018 16.8 (17:10) 8.5 (00:00) 12.6 8.06 (17:10) 4.17 (17:10) 0 0 0 0 0
04-06-2018 16.8 (15:10) 8.2 (00:00) 12.5 9.72 (15:40) 5 (17:10) 0 0 0 0 0
03-06-2018 19.7 (15:10) 10 (00:00) 14.9 8.33 (16:30) 3.89 (15:00) 9.4 0.1 0 9.3 0
02-06-2018 20.8 (16:40) 10.9 (00:00) 15.8 14.72 (00:10) 10 (01:50) 1 0.3 0.4 0 0.3
01-06-2018 20.4 (18:30) 11.1 (00:00) 15.8 13.89 (23:59) 9.44 (23:59) 0 0 0 0 0
31-05-2018 19.5 (17:50) 10.6 (07:00) 15.1 8.61 (16:10) 3.89 (18:40) 0 0 0 0 0
30-05-2018 14.4 (18:00) 9.4 (00:00) 11.9 12.5 (23:10) 3.61 (18:30) 6.1 1.3 2.3 1.9 0.6
29-05-2018 17.5 (13:10) 9.8 (00:00) 13.7 8.33 (13:50) 4.17 (13:50) 0.4 0 0 0.4 0
28-05-2018 17.1 (16:50) 10.9 (00:00) 14 10.28 (23:10) 4.72 (19:10) 4.2 0.4 1.3 0 2.5
27-05-2018 21.1 (16:10) 10.5 (00:00) 15.8 12.5 (21:40) 8.06 (21:40) 14.5 0 0 0 14.5
26-05-2018 18.6 (18:10) 9.1 (00:00) 13.9 6.67 (14:50) 3.33 (11:30) 0 0 0 0 0
25-05-2018 -- (--) -- (--) -- -- (--) -- (--) -- -- -- 0 3.9
24-05-2018 23.8 (17:50) 12.5 (00:00) 18.1 11.39 (21:20) 6.94 (21:20) 0.5 0.4 0 0 0.1
23-05-2018 23.3 (16:10) 12.2 (00:00) 17.7 13.33 (20:30) 6.94 (20:30) 0 0 0 0 0
22-05-2018 18.8 (13:00) 10.4 (00:00) 14.6 7.78 (14:30) 3.61 (14:40) 0.1 0 0 0.1 0

Gráficas

Temp. máximas Temp. mínimas Temp. medias Precipitaciones Rachas de viento máximas Velocidades máximas media en intervalos de 10 minutos

Datos horarios

Fecha y hora oficial Temperatura (ºC) Velocidad del viento (km/h) Dirección del viento Racha (km/h) Dirección de racha Precipitación (mm) Presión (hPa) Tendencia (hPa) Humedad (%)
2018-06-20 23:00:00 24.5 8 Este 19 Este 0 905.7 1 38
2018-06-20 22:00:00 25.3 5 Norte 11 Norte 0 905 0.2 37
2018-06-20 21:00:00 28.4 4 Norte 7 Noroeste 0 904.7 -0.5 33
2018-06-20 20:00:00 28.7 2 Este 12 Este 0 904.7 -0.8 31
2018-06-20 19:00:00 28.8 6 Sudeste 14 Sur 0 904.8 -1 31
2018-06-20 18:00:00 28.9 3 Sudeste 13 Sudeste 0 905.2 -0.9 31
2018-06-20 17:00:00 29.3 2 Norte 13 Sur 0 905.5 -1.2 32
2018-06-20 16:00:00 28.5 3 Sudeste 17 Sur 0 905.8 -1.1 33
2018-06-20 15:00:00 28 2 Sudeste 15 Sur 0 906.1 -1.1 36
2018-06-20 14:00:00 26.9 5 Sur 15 Sudeste 0 906.7 -0.6 38
2018-06-20 13:00:00 26.2 7 Sudeste 15 Sur 0 906.9 -0.4 39
2018-06-20 12:00:00 24.9 5 Sudeste 18 Sudeste 0 907.2 -0.2 41
2018-06-20 11:00:00 23.6 9 Este 21 Este 0 907.3 0.2 42
2018-06-20 10:00:00 22.7 6 Sudeste 12 Sudeste 0 907.3 0.2 45
2018-06-20 09:00:00 21.6 3 Nordeste 8 Nordeste 0 907.4 0.3 46
2018-06-20 08:00:00 20 2 Nordeste 8 Nordeste 0 907.1 0.1 50
2018-06-20 07:00:00 17.7 5 Nordeste 10 Nordeste 0 907.1 0.1 51
2018-06-20 06:00:00 17.9 7 Nordeste 10 Nordeste 0 907.1 -0.1 51
2018-06-20 05:00:00 18.1 8 Nordeste 13 Este 0 907 -0.1 50
2018-06-20 04:00:00 18.7 8 Nordeste 13 Sudeste 0 907 0.2 48
2018-06-20 03:00:00 20.1 6 Este 9 Sudeste 0 907.2 0.6 42
2018-06-20 02:00:00 21 3 Oeste 15 Sudeste 0 907.1 0.9 41
2018-06-20 01:00:00 22.7 7 Sudeste 17 Este 0 906.8 1 38
2018-06-20 00:00:00 22 7 Este 18 Este 0 906.6 0.8 42
2018-06-19 23:00:00 22.9 5 Norte 12 Norte 0 906.2 0.2 40
2018-06-19 22:00:00 23.6 6 Norte 13 Norte 0 905.8 -0.2 39
2018-06-19 21:00:00 27.2 3 Noroeste 6 Noroeste 0 905.8 -0.5 33
2018-06-19 20:00:00 28.4 0 Calma 6 Oeste 0 906 -0.6 33
2018-06-19 19:00:00 28 3 Sudeste 18 Sudoeste 0 906 -1 33
2018-06-19 18:00:00 28.1 3 Noroeste 9 Noroeste 0 906.3 -0.9 33
2018-06-19 17:00:00 27.4 3 Sudoeste 15 Sur 0 906.6 -0.9 33
2018-06-19 16:00:00 26.9 0 Calma 19 Este 0 907 -1 33
2018-06-19 15:00:00 26 8 Este 21 Este 0 907.2 -1 35
2018-06-19 14:00:00 25.1 5 Sur 22 Este 0 907.5 -0.9 36
2018-06-19 13:00:00 24.8 8 Este 17 Este 0 908 -0.7 37
2018-06-19 12:00:00 23.8 4 Este 24 Sudeste 0 908.2 -0.2 39
2018-06-19 11:00:00 22.5 4 Este 15 Sudeste 0 908.4 0.2 39
2018-06-19 10:00:00 21.4 2 Sudeste 21 Sudeste 0 908.7 0.4 44
2018-06-19 09:00:00 20.9 5 Este 10 Este 0 908.4 0.3 43
2018-06-19 08:00:00 18.1 3 Norte 15 Nordeste 0 908.2 -0.2 47
2018-06-19 07:00:00 15 8 Norte 22 Norte 0 908.3 -0.2 51
2018-06-19 06:00:00 13.2 10 Norte 30 Nordeste 0 908.1 -0.5 60
2018-06-19 05:00:00 15.4 8 Nordeste 26 Nordeste 0 908.4 -0.3 47
2018-06-19 04:00:00 15.1 18 Este 29 Este 0 908.5 -0.1 51
2018-06-19 03:00:00 15.9 6 Nordeste 26 Este 0 908.6 0.2 53
2018-06-19 02:00:00 16.4 7 Nordeste 24 Este 0 908.7 0.5 51
2018-06-19 01:00:00 17.3 8 Nordeste 33 Este 0 908.6 1 47
2018-06-19 00:00:00 18.4 15 Este 40 Nordeste 0 908.4 1.1 44
2018-06-18 23:00:00 20.4 12 Este 26 Nordeste 0 908.2 0.8 42
2018-06-18 22:00:00 22.2 10 Nordeste 23 Nordeste 0 907.6 0.2 42
2018-06-18 21:00:00 24.3 7 Nordeste 18 Nordeste 0 907.3 -0.4 37
2018-06-18 20:00:00 26.7 10 Nordeste 23 Nordeste 0 907.4 -0.7 33
2018-06-18 19:00:00 27.4 10 Este 21 Este 0 907.4 -1.2 31
2018-06-18 18:00:00 27.8 12 Nordeste 23 Nordeste 0 907.7 -1.3 30
2018-06-18 17:00:00 27.9 10 Nordeste 23 Nordeste 0 908.1 -1.3 29
2018-06-18 16:00:00 27.8 9 Este 23 Nordeste 0 908.6 -1.1 30
2018-06-18 15:00:00 27.4 5 Nordeste 22 Norte 0 909 -0.9 29
2018-06-18 14:00:00 26.9 6 Norte 49 Este 0 909.4 -0.5 30
2018-06-18 13:00:00 26 15 Nordeste 31 Este 0 909.7 0 30
2018-06-18 12:00:00 24 8 Este 28 Nordeste 0 909.9 0.3 37
2018-06-18 11:00:00 22.5 10 Sudeste 30 Sudeste 0 909.9 0.6 39
2018-06-18 10:00:00 23.7 6 Norte 22 Norte 0 909.7 0.6 31
2018-06-18 09:00:00 20.8 9 Nordeste 21 Norte 0 909.6 0.5 34
2018-06-18 08:00:00 19.5 10 Norte 26 Norte 0 909.3 -0.3 35
2018-06-18 07:00:00 17.4 8 Norte 17 Norte 0 909.1 -0.4 37
2018-06-18 06:00:00 16.2 0 Calma 15 Este 0 909.1 -0.2 39
2018-06-18 05:00:00 16.9 5 Norte 22 Norte 0 909.6 0.1 37
2018-06-18 04:00:00 17.5 2 Sudoeste 23 Nordeste 0 909.5 -0.3 35
2018-06-18 03:00:00 18.1 10 Nordeste 26 Norte 0 909.3 -0.4 35
2018-06-18 02:00:00 19.7 14 Norte 30 Norte 0 909.5 0 32
2018-06-18 01:00:00 19.6 14 Norte 28 Norte 0 909.8 1 32
2018-06-18 00:00:00 19 13 Norte 48 Nordeste 0 909.7 1.4 33
2018-06-17 23:00:00 19.1 9 Nordeste 28 Nordeste 0 909.5 1.4 32
2018-06-17 22:00:00 20.7 10 Nordeste 27 Nordeste 0 908.8 0.9 28
2018-06-17 21:00:00 23.5 12 Norte 30 Nordeste 0 908.3 0.6 25
2018-06-17 20:00:00 25.1 14 Norte 28 Norte 0 908.1 0.1 26
2018-06-17 19:00:00 26.1 13 Norte 36 Norte 0 907.9 -0.2 30
2018-06-17 18:00:00 27.5 9 Nordeste 24 Nordeste 0 907.7 -0.6 30
2018-06-17 17:00:00 26.9 8 Este 16 Este 0 908 -0.4 31
2018-06-17 16:00:00 26.7 5 Este 14 Sudeste 0 908.1 -0.5 31
2018-06-17 15:00:00 25.8 4 Oeste 14 Sur 0 908.3 -0.3 31
2018-06-17 14:00:00 25.6 4 Sudoeste 16 Oeste 0 908.4 0 33
2018-06-17 13:00:00 24.4 4 Sur 12 Sudeste 0 908.6 0.5 33
2018-06-17 12:00:00 23.3 6 Sur 15 Sudeste 0 908.6 0.7 33
2018-06-17 11:00:00 23.1 0 Calma 9 Sudeste 0 908.4 0.9 33
2018-06-17 10:00:00 20.9 3 Noroeste 9 Noroeste 0 908.1 1.1 33
2018-06-17 09:00:00 18.3 4 Noroeste 9 Noroeste 0 907.9 1.2 36
2018-06-17 08:00:00 15.4 5 Noroeste 12 Noroeste 0 907.5 0.9 41
2018-06-17 07:00:00 14.4 6 Noroeste 13 Noroeste 0 907 0.6 42
2018-06-17 06:00:00 14.6 4 Norte 18 Nordeste 0 906.7 0.2 40
2018-06-17 05:00:00 16.3 6 Nordeste 22 Este 0 906.6 0.5 36
2018-06-17 04:00:00 16.8 13 Nordeste 20 Este 0 906.4 0.7 35
2018-06-17 03:00:00 16.1 2 Oeste 12 Nordeste 0 906.5 1.3 31
2018-06-17 02:00:00 18.1 5 Nordeste 22 Nordeste 0 906.1 1.2 27
2018-06-17 01:00:00 18.9 9 Nordeste 22 Nordeste 0 905.7 1.5 26
2018-06-17 00:00:00 19 9 Nordeste 25 Nordeste 0 905.2 1.1 29
2018-06-16 23:00:00 19.2 8 Nordeste 21 Norte 0 904.9 1.1 31
2018-06-16 22:00:00 20.5 10 Norte 23 Norte 0 904.2 0.8 31
2018-06-16 21:00:00 23.6 12 Norte 23 Norte 0 904.1 0.6 29
2018-06-16 20:00:00 25.6 13 Norte 28 Norte 0 903.8 0.2 31
2018-06-16 19:00:00 26.7 8 Nordeste 20 Norte 0 903.4 -0.4 30
2018-06-16 18:00:00 27.1 6 Norte 24 Nordeste 0 903.5 -0.3 32
2018-06-16 17:00:00 27.4 6 Nordeste 17 Nordeste 0 903.6 -0.8 33
2018-06-16 16:00:00 27.6 4 Nordeste 11 Oeste 0 903.8 -0.4 33
2018-06-16 15:00:00 26.3 4 Oeste 12 Oeste 0 903.8 -0.6 35
2018-06-16 14:00:00 25.1 3 Noroeste 11 Sur 0 904.4 0 38
2018-06-16 13:00:00 23.6 5 Sudoeste 13 Sudeste 0 904.2 0 42
2018-06-16 12:00:00 23 5 Sudoeste 11 Sudeste 0 904.4 0.3 45
2018-06-16 11:00:00 22.3 5 Sudeste 14 Nordeste 0 904.4 0.8 46
2018-06-16 10:00:00 21.2 3 Este 9 Noroeste 0 904.2 0.8 49
2018-06-16 09:00:00 19 2 Nordeste 10 Norte 0 904.1 1.1 58
2018-06-16 08:00:00 15.2 4 Noroeste 10 Noroeste 0 903.6 0.5 74
2018-06-16 07:00:00 13.8 5 Oeste 8 Oeste 0 903.4 0.1 78
2018-06-16 06:00:00 14.3 3 Norte 9 Noroeste 0 903 -0.5 74
2018-06-16 05:00:00 15 4 Noroeste 7 Sudoeste 0 903.1 -0.5 73
2018-06-16 04:00:00 15.2 3 Oeste 8 Este 0 903.3 -0.2 73
2018-06-16 03:00:00 15.9 2 Sudoeste 14 Este 0 903.5 0.2 70
2018-06-16 02:00:00 16.8 5 Sudoeste 21 Nordeste 0 903.6 0.7 64
2018-06-16 01:00:00 18.1 14 Este 22 Este 0 903.5 0.8 56
2018-06-16 00:00:00 19.1 14 Este 22 Nordeste 0 903.3 1 51
2018-06-15 23:00:00 19.6 8 Nordeste 22 Norte 0 902.9 0.6 47
2018-06-15 22:00:00 20.7 11 Nordeste 27 Norte 0 902.7 0.6 44
2018-06-15 21:00:00 22.5 8 Nordeste 22 Norte 0 902.3 -0.2 40
2018-06-15 20:00:00 24.6 8 Norte 22 Norte 0 902.3 -0.6 36
2018-06-15 19:00:00 24.9 5 Sudeste 13 Sudeste 0 902.1 -1 32
2018-06-15 18:00:00 26.2 6 Sudeste 30 Sudoeste 0 902.5 -1.1 31
2018-06-15 17:00:00 26.4 5 Este 15 Este 0 902.9 -1.1 31
2018-06-15 16:00:00 25.5 5 Sudeste 17 Sudeste 0 903.1 -1.2 31
2018-06-15 15:00:00 24.9 6 Sur 14 Sur 0 903.6 -0.6 32
2018-06-15 14:00:00 24.1 5 Sur 14 Sur 0 904 -0.4 33
2018-06-15 13:00:00 22.7 6 Sudeste 16 Sur 0 904.3 -0.1 36
2018-06-15 12:00:00 21.7 7 Sudeste 13 Sudoeste 0 904.2 0.2 37
2018-06-15 11:00:00 20 5 Sur 15 Sudeste 0 904.4 0.5 38
2018-06-15 10:00:00 18.9 5 Sudeste 28 Sudeste 0 904.4 0.9 39
2018-06-15 09:00:00 17.3 5 Sudeste 8 Sudeste 0 904 0.6 40
2018-06-15 08:00:00 15.3 4 Oeste 10 Oeste 0 903.9 0.5 41
2018-06-15 07:00:00 14.4 5 Sudoeste 9 Sudoeste 0 903.5 -0.4 39
2018-06-15 06:00:00 14.9 4 Sudoeste 8 Sudoeste 0 903.4 -0.5 39
2018-06-15 05:00:00 14.5 2 Oeste 8 Noroeste 0 903.4 -0.7 39
2018-06-15 04:00:00 15.7 3 Noroeste 8 Este 0 903.9 -0.4 35
2018-06-15 03:00:00 15.5 5 Noroeste 11 Noroeste 0 903.9 -0.5 35
2018-06-15 02:00:00 16.3 5 Oeste 15 Noroeste 0 904.1 -0.2 34
2018-06-15 01:00:00 17.4 10 Norte 25 Norte 0 904.3 0.5 32
2018-06-15 00:00:00 16.8 8 Nordeste 19 Nordeste 0 904.4 0.7 33
2018-06-14 23:00:00 17.2 9 Nordeste 23 Nordeste 0 904.3 0.7 34
2018-06-14 22:00:00 17.6 10 Nordeste 29 Norte 0 903.8 0.3 33
2018-06-14 21:00:00 20 7 Nordeste 19 Nordeste 0 903.7 0.3 30
2018-06-14 20:00:00 22.8 8 Norte 21 Norte 0 903.6 0.2 27
2018-06-14 19:00:00 23.5 8 Norte 22 Norte 0 903.5 -0.2 28
2018-06-14 18:00:00 24.3 7 Noroeste 19 Este 0 903.4 -0.5 27
2018-06-14 17:00:00 22.7 0 Calma 17 Sudeste 0 903.4 -0.8 31
2018-06-14 16:00:00 22.3 6 Sudeste 17 Sudeste 0 903.7 -0.7 33
2018-06-14 15:00:00 21.3 5 Sudoeste 20 Nordeste 0 903.9 -0.7 37
2018-06-14 14:00:00 19.7 5 Sur 25 Este 0 904.2 -0.3 39
2018-06-14 13:00:00 18.1 3 Sudoeste 13 Oeste 0 904.4 -0.2 46
2018-06-14 12:00:00 16.4 5 Sudoeste 17 Sur 0 904.6 0.2 53
2018-06-14 11:00:00 15.3 2 Sudoeste 9 Sur 0 904.5 0.3 57
2018-06-14 10:00:00 13.6 3 Sur 12 Sudeste 0 904.6 0.2 65
2018-06-14 09:00:00 12.3 5 Sur 8 Sur 0 904.4 0 68
2018-06-14 08:00:00 9.7 2 Noroeste 6 Noroeste 0 904.2 0 79
2018-06-14 07:00:00 8.8 3 Noroeste 6 Noroeste 0 904.4 -0.1 76
2018-06-14 06:00:00 8.8 2 Noroeste 8 Norte 0 904.4 0 72
2018-06-14 05:00:00 9.9 4 Nordeste 12 Este 0 904.2 -0.6 65
2018-06-14 04:00:00 10.4 9 Este 12 Este 0 904.5 -0.5 60
2018-06-14 03:00:00 11.8 5 Sur 11 Sur 0 904.4 -0.5 52
2018-06-14 02:00:00 12.6 4 Sur 17 Norte 0 904.8 -0.1 47
2018-06-14 01:00:00 13.2 9 Norte 28 Norte 0 905 0.5 48
2018-06-14 00:00:00 13.2 12 Nordeste 30 Nordeste 0 904.9 0.6 51
2018-06-13 23:00:00 13.4 11 Nordeste 32 Norte 0 904.9 0.8 48
2018-06-13 22:00:00 14.6 12 Nordeste 32 Nordeste 0 904.5 0.4 45
2018-06-13 21:00:00 16.7 14 Norte 32 Norte 0 904.3 0.1 39
2018-06-13 20:00:00 19.1 14 Norte 30 Norte 0 904.1 -0.4 36
2018-06-13 19:00:00 19.9 15 Norte 31 Norte 0 904.1 -0.6 33
2018-06-13 18:00:00 21.3 11 Norte 26 Este 0 904.2 -0.9 32
2018-06-13 17:00:00 21.1 11 Nordeste 30 Nordeste 0 904.5 -0.7 33
2018-06-13 16:00:00 20.9 12 Norte 32 Nordeste 0 904.7 -0.9 33
2018-06-13 15:00:00 20.9 13 Norte 28 Norte 0 905.1 -0.6 34
2018-06-13 14:00:00 20.1 9 Nordeste 25 Este 0 905.2 -0.6 36
2018-06-13 13:00:00 19.5 7 Nordeste 20 Nordeste 0 905.6 -0.2 39
2018-06-13 12:00:00 17.4 6 Sur 15 Sudeste 0 905.7 0 44
2018-06-13 11:00:00 16.5 5 Sudoeste 14 Sudoeste 0 905.8 0.3 47
2018-06-13 10:00:00 15 6 Oeste 12 Nordeste 0 905.8 0.4 53
2018-06-13 09:00:00 13.9 2 Oeste 14 Nordeste 0 905.7 0.5 58
2018-06-13 08:00:00 12.6 8 Norte 18 Norte 0 905.5 0.2 57
2018-06-13 07:00:00 10.5 9 Nordeste 18 Nordeste 0 905.4 0.4 60
2018-06-13 06:00:00 11.2 2 Noroeste 7 Norte 0 905.2 0 60
2018-06-13 05:00:00 10.7 3 Noroeste 12 Sudoeste 0 905.3 0.1 59
2018-06-13 04:00:00 12.3 5 Nordeste 21 Norte 0 905 -0.2 53
2018-06-13 03:00:00 12.2 9 Nordeste 23 Nordeste 0 905.2 0.1 54
2018-06-13 02:00:00 12.8 9 Nordeste 29 Norte 0 905.2 0.3 54
2018-06-13 01:00:00 13.7 9 Norte 32 Norte 0 905.2 0.9 55
2018-06-13 00:00:00 14.3 16 Norte 32 Norte 0 905.1 1.4 55
2018-06-12 23:00:00 15.2 11 Norte 37 Norte 0 904.9 1.5 49
2018-06-12 22:00:00 16.2 15 Norte 33 Norte 0 904.3 1.2 42
2018-06-12 21:00:00 17.9 9 Norte 40 Norte 0 903.7 0.6 39
2018-06-12 20:00:00 18.8 11 Noroeste 28 Noroeste 0 903.4 0.4 39
2018-06-12 19:00:00 19.4 10 Norte 28 Noroeste 0 903.1 -0.3 41
2018-06-12 18:00:00 19.9 8 Norte 21 Norte 0 903.1 -0.6 40
2018-06-12 17:00:00 20.8 6 Sudoeste 13 Sudoeste 0 903 -0.7 38
2018-06-12 16:00:00 20.1 3 Norte 24 Este 0 903.4 -0.5 40
2018-06-12 15:00:00 18.5 3 Sudeste 26 Este 0 903.7 0.4 45
2018-06-12 14:00:00 17.5 4 Sudoeste 18 Sur 0 903.7 0.6 47
2018-06-12 13:00:00 17.5 3 Oeste 17 Sudeste 0 903.9 1.2 49
2018-06-12 12:00:00 18.1 6 Sur 19 Sudeste 0 903.3 0.8 50
2018-06-12 11:00:00 17.2 5 Sudeste 17 Este 0 903.1 1.2 50
2018-06-12 10:00:00 15.5 5 Sur 18 Sudeste 0 902.7 1 61
2018-06-12 09:00:00 15.1 3 Este 9 Este 0 902.5 0.9 62
2018-06-12 08:00:00 11.5 3 Oeste 11 Este 0 901.9 0.3 79
2018-06-12 07:00:00 10.1 0 Calma 9 Nordeste 0 901.7 0.1 85
2018-06-12 06:00:00 10.5 2 Sudoeste 7 Sudoeste 0 901.6 -0.3 84
2018-06-12 05:00:00 10.3 0 Calma 6 Oeste 0 901.6 -0.3 83
2018-06-12 04:00:00 10.5 3 Oeste 6 Oeste 0 901.6 -0.4 83
2018-06-12 03:00:00 10.7 0 Calma -- -- 0 901.9 -0.2 88
2018-06-12 02:00:00 10.7 0 Calma -- -- 0 901.9 0 87
2018-06-12 01:00:00 10.8 0 Calma 5 Oeste 0 902 1 83
2018-06-12 00:00:00 11.8 0 Calma -- -- 0 902.1 1.2 85
2018-06-11 23:00:00 12 0 Calma 8 Noroeste 0 901.9 1.3 91
2018-06-11 22:00:00 12.5 0 Calma 8 Este 0 901 0.9 88
2018-06-11 21:00:00 13 3 Sur 18 Norte 12.1 900.9 0.8 91
2018-06-11 20:00:00 15.5 7 Este 17 Sudeste 0 900.6 0.4 60
2018-06-11 19:00:00 16.8 6 Este 14 Nordeste 0 900.1 -0.3 54
2018-06-11 18:00:00 16 6 Sudeste 12 Sudeste 0 900.1 -0.7 57
2018-06-11 17:00:00 15.4 4 Sur 13 Sur 0 900.2 -0.7 62
2018-06-11 16:00:00 15.2 5 Sur 11 Sudeste 0.7 900.4 -0.6 71
2018-06-11 15:00:00 13.8 6 Sur 14 Sur 0.3 900.8 -0.1 73
2018-06-11 14:00:00 14.7 8 Sur 17 Sudoeste 0 900.9 0.3 64
2018-06-11 13:00:00 13.5 7 Sur 20 Sudoeste 0 901 0.6 68
2018-06-11 12:00:00 12.6 7 Sur 16 Sudoeste 0 900.9 0.9 78
2018-06-11 11:00:00 12.1 7 Sudeste 15 Sudeste 0 900.6 0.9 88
2018-06-11 10:00:00 11.2 4 Sur 13 Sur 0 900.4 -- 98
2018-06-11 09:00:00 10.6 6 Sudeste 13 Sudeste 0 900 -- 99
2018-06-11 08:00:00 10.3 6 Sudeste -- -- -- 899.7 -- 99
2018-06-11 07:00:00 -- -- -- -- -- -- -- -- --
2018-06-11 06:00:00 -- -- -- -- -- -- -- -- --
2018-06-11 05:00:00 -- -- -- -- -- -- -- -- --
2018-06-11 04:00:00 -- -- -- -- -- -- -- -- --
2018-06-11 03:00:00 -- -- -- -- -- -- -- -- --
2018-06-11 02:00:00 -- -- -- -- -- -- -- -- --
2018-06-11 01:00:00 -- -- -- -- -- -- -- -- --
2018-06-11 00:00:00 -- -- -- -- -- -- -- -- --
2018-06-10 23:00:00 -- -- -- -- -- -- -- -- --
2018-06-10 22:00:00 -- -- -- -- -- -- -- -- --
2018-06-10 21:00:00 12.2 5 Oeste 33 Oeste 2.7 899.2 0.3 73
2018-06-10 20:00:00 14.6 9 Sudoeste 21 Sudoeste 0 899 0 54
2018-06-10 19:00:00 14.8 14 Sudoeste 29 Sudoeste 0 899 -0.6 54
2018-06-10 18:00:00 16.6 14 Sudoeste 27 Sudoeste 0 898.9 -0.9 50
2018-06-10 17:00:00 16.6 11 Sudoeste 26 Sur 0 899 -1.1 54
2018-06-10 16:00:00 14.4 12 Sudoeste 23 Sudoeste 0 899.6 -0.7 64
2018-06-10 15:00:00 13.8 7 Sur 21 Sudoeste 0 899.8 -0.6 67
2018-06-10 14:00:00 13 7 Sudoeste 19 Sudoeste 0 900.1 -0.1 76
2018-06-10 13:00:00 13.2 8 Sudoeste 22 Sudoeste 0 900.3 -0.2 70
2018-06-10 12:00:00 12.4 9 Sudoeste 42 Sudeste 0.1 900.4 0 78
2018-06-10 11:00:00 12.3 10 Sur 15 Sudeste 0 900.2 -0.2 83
2018-06-10 10:00:00 12.4 4 Sudoeste 12 Sur 0 900.5 0.4 83
2018-06-10 09:00:00 10.5 0 Calma 5 Noroeste 0 900.4 0.2 96
2018-06-10 08:00:00 9.6 0 Calma 7 Este 0.6 900.4 -0.1 97
2018-06-10 07:00:00 9 5 Este 8 Norte 0 900.1 -0.5 97
2018-06-10 06:00:00 8.1 0 Calma 5 Norte 0 900.2 -0.6 96
2018-06-10 05:00:00 8.5 0 Calma 8 Nordeste 0 900.5 -0.7 94
2018-06-10 04:00:00 8.6 6 Nordeste 10 Nordeste 0 900.6 -1 93
2018-06-10 03:00:00 9 5 Este 7 Este 0 900.8 -0.4 92
2018-06-10 02:00:00 9.1 0 Calma 4 Sur 0 901.2 -0.2 90
2018-06-10 01:00:00 9.3 3 Sur 9 Oeste 0 901.6 0.8 88
2018-06-10 00:00:00 9.7 6 Sudoeste 16 Sudoeste 0 901.2 1.1 88
2018-06-09 23:00:00 9.9 8 Sudoeste 13 Sudoeste 0 901.4 1.2 83
2018-06-09 22:00:00 10.6 6 Sudoeste 17 Sudoeste 0 900.8 1 73
2018-06-09 21:00:00 12.1 6 Sur 21 Sudoeste 0 900.1 0.5 64
2018-06-09 20:00:00 12.9 14 Sudoeste 24 Sudoeste 0 900.2 0.3 57
2018-06-09 19:00:00 13.7 15 Sudoeste 26 Sudoeste 0 899.8 -0.2 57
2018-06-09 18:00:00 15.4 10 Sudoeste 23 Oeste 0 899.6 -0.4 57
2018-06-09 17:00:00 13.2 9 Oeste 23 Oeste 0.2 899.9 -0.4 71
2018-06-09 16:00:00 14.6 12 Sudoeste 22 Sudoeste 0 900 -0.4 55
2018-06-09 15:00:00 16.1 9 Sudoeste 26 Sudoeste 0 900 -0.5 55
2018-06-09 14:00:00 15 9 Sur 21 Sur 0 900.3 0.2 57
2018-06-09 13:00:00 15.2 8 Sur 21 Sur 0 900.4 0.2 61
2018-06-09 12:00:00 14.7 9 Sur 23 Sudeste 0 900.5 0.7 68
2018-06-09 11:00:00 13.9 10 Sur 21 Sur 0 900.1 0.3 78
2018-06-09 10:00:00 12 9 Sur 14 Sudeste 0 900.2 0.4 92
2018-06-09 09:00:00 11.5 5 Este 8 Este 0 899.8 0 99
2018-06-09 08:00:00 10.9 0 Calma 5 Este 0 899.8 0.1 99
2018-06-09 07:00:00 10.6 0 Calma 4 Este 0 899.8 0 99
2018-06-09 06:00:00 10.2 0 Calma 5 Nordeste 0 899.8 -0.2 99
2018-06-09 05:00:00 10.3 0 Calma 5 Este 0.1 899.7 -1 99
2018-06-09 04:00:00 10.4 3 Este 5 Este 0 899.8 -1 99
2018-06-09 03:00:00 10.8 0 Calma 3 Noroeste 0 900 -1.3 99
2018-06-09 02:00:00 10.6 0 Calma 4 Noroeste 0 900.7 -0.3 99
2018-06-09 01:00:00 10.9 0 Calma 5 Oeste 0 900.8 0.5 99
2018-06-09 00:00:00 11.5 2 Noroeste 6 Oeste 0 901.3 1.3 99
2018-06-08 23:00:00 11.5 0 Calma 14 Sudoeste 0 901 1 99
2018-06-08 22:00:00 11.3 6 Sudoeste 15 Sudoeste 0 900.3 0.4 99
2018-06-08 21:00:00 12.3 9 Sudoeste 35 Sudoeste 0.4 900 0.2 95
2018-06-08 20:00:00 12.7 18 Sudoeste 31 Sudoeste 3.8 900 -0.1 94
2018-06-08 19:00:00 14.7 11 Sur 24 Sur 0.1 899.9 -0.6 79
2018-06-08 18:00:00 15.2 11 Sur 26 Sur 0 899.8 -1 75
2018-06-08 17:00:00 13.6 9 Sur 20 Sur 0 900.1 -1.3 88
2018-06-08 16:00:00 14.2 9 Sur 24 Sur 0.2 900.5 -1 84
2018-06-08 15:00:00 12.5 5 Sudoeste 24 Sur 0.2 900.8 -1 93
2018-06-08 14:00:00 13.2 18 Sur 26 Sudeste 0.1 901.4 -0.6 88
2018-06-08 13:00:00 13.2 8 Sudeste 18 Sudeste 0 901.5 -0.2 93
2018-06-08 12:00:00 12.7 7 Sudeste 15 Sudeste 0 901.8 0.1 99
2018-06-08 11:00:00 11.7 7 Sudeste 15 Sudeste 0.3 902 0.9 99
2018-06-08 10:00:00 11.7 8 Sudeste 12 Sudeste 0.5 901.7 0.4 99
2018-06-08 09:00:00 12.1 4 Sudeste 6 Sudeste 0 901.7 0.5 96
2018-06-08 08:00:00 11.6 0 Calma 11 Sudoeste 0.7 901.1 -0.3 95
2018-06-08 07:00:00 11.9 5 Sudoeste 10 Sudoeste 0 901.3 -0.3 87
2018-06-08 06:00:00 12 5 Sudoeste 14 Sudoeste 0 901.2 -0.9 83
2018-06-08 05:00:00 12 5 Sudoeste 12 Sudoeste 0 901.4 -1 82
2018-06-08 04:00:00 12.2 6 Sur 15 Sur 0 901.6 -1.2 76
2018-06-08 03:00:00 12.8 8 Sur 14 Sur 0 902.1 -0.9 71
2018-06-08 02:00:00 13.2 4 Sur 12 Sudoeste 0 902.4 -0.6 63
2018-06-08 01:00:00 13.7 5 Sudoeste 12 Sudoeste 0 902.8 -0.2 58
2018-06-08 00:00:00 13.9 6 Sudoeste 11 Sudoeste 0 903 0.2 61
2018-06-07 23:00:00 14.4 6 Oeste 15 Sudoeste 0 903 0.1 63
2018-06-07 22:00:00 14.8 5 Sudoeste 11 Sudoeste 0 903 0.2 68
2018-06-07 21:00:00 15.9 3 Sudoeste 6 Sudoeste 0 902.8 0.1 70
2018-06-07 20:00:00 16.1 3 Oeste 9 Oeste 0 902.9 0.1 67
2018-06-07 19:00:00 16.1 5 Oeste 25 Sudoeste 0 902.8 -0.3 66
2018-06-07 18:00:00 17.3 9 Sudoeste 20 Sudoeste 0 902.7 -0.6 51
2018-06-07 17:00:00 17.7 9 Sudoeste 20 Sudoeste 0 902.8 -0.7 51
2018-06-07 16:00:00 18.3 11 Sudoeste 26 Sudoeste 0 903.1 -0.9 45
2018-06-07 15:00:00 18.7 13 Sudoeste 26 Sudoeste 0 903.3 -0.9 43
2018-06-07 14:00:00 19.2 9 Sudoeste 33 Sudeste 0 903.5 -0.3 43
2018-06-07 13:00:00 17.4 12 Sur 28 Sur 0 904 0 47
2018-06-07 12:00:00 16.6 11 Sudoeste 21 Sudoeste 0 904.2 0.4 55
2018-06-07 11:00:00 15.7 6 Sudeste 15 Sur 0 903.8 0.2 64
2018-06-07 10:00:00 14.3 2 Sudoeste 8 Sur 0 904 0.5 67
2018-06-07 09:00:00 12.8 0 Calma 7 Sudoeste 0 903.8 0.5 71
2018-06-07 08:00:00 11.2 0 Calma 6 Sudoeste 0 903.6 0.2 75
2018-06-07 07:00:00 10 2 Sudeste 5 Este 0 903.5 0.2 78
2018-06-07 06:00:00 9.9 3 Oeste 5 Oeste 0 903.3 0.1 79
2018-06-07 05:00:00 10 3 Oeste 5 Oeste 0 903.4 0.1 82
2018-06-07 04:00:00 9.8 5 Oeste 8 Oeste 0 903.3 -0.2 84
2018-06-07 03:00:00 10.9 2 Oeste 5 Sur 0 903.2 -0.2 76
2018-06-07 02:00:00 11.7 4 Sudeste 7 Sudeste 0 903.3 -0.1 73
2018-06-07 01:00:00 11.4 3 Sur 7 Sudoeste 0 903.5 0.8 72
2018-06-07 00:00:00 12 5 Sudoeste 9 Sudoeste 0 903.4 1.5 69
2018-06-06 23:00:00 12.8 0 Calma 11 Norte 0 903.4 2.1 65
2018-06-06 22:00:00 13.4 7 Norte 14 Noroeste 0 902.7 1.9 51
2018-06-06 21:00:00 14.7 3 Nordeste 13 Este 0 901.9 1.2 49
2018-06-06 20:00:00 17.3 7 Norte 26 Noroeste 0 901.3 0.6 45
2018-06-06 19:00:00 16.5 8 Sudoeste 18 Sudoeste 0 900.8 0.2 45
2018-06-06 18:00:00 16.9 7 Oeste 15 Oeste 0 900.7 -0.2 47
2018-06-06 17:00:00 15.9 5 Oeste 18 Sudoeste 0 900.7 -0.1 56
2018-06-06 16:00:00 14.1 7 Sudoeste 14 Sur 0.1 900.6 -0.3 68
2018-06-06 15:00:00 11.4 6 Oeste 21 Noroeste 1.1 900.9 0 83
2018-06-06 14:00:00 13.9 5 Sudeste 19 Este 0 900.8 0.3 62
2018-06-06 13:00:00 12.5 3 Este 21 Este 0.3 900.9 0.6 73
2018-06-06 12:00:00 13 3 Sur 12 Este 0 900.9 0.8 71
2018-06-06 11:00:00 11.9 6 Sudeste 12 Este 0 900.5 1.3 79
2018-06-06 10:00:00 9.1 3 Nordeste 16 Norte 0.6 900.3 1.4 91
2018-06-06 09:00:00 8.7 4 Norte 18 Este 0.2 900.1 1 88
2018-06-06 08:00:00 8.7 12 Este 22 Este 0 899.2 0.1 96
2018-06-06 07:00:00 9 10 Nordeste 18 Nordeste 0.1 898.9 -0.3 94
2018-06-06 06:00:00 9 4 Norte 8 Norte 0 899.1 0 88
2018-06-06 05:00:00 9.1 0 Calma 7 Nordeste 0 899.1 -0.5 84
2018-06-06 04:00:00 9.1 5 Nordeste 9 Nordeste 0 899.2 -0.9 84
2018-06-06 03:00:00 9.4 6 Este 12 Sudeste 0 899.1 -0.9 82
2018-06-06 02:00:00 9.2 6 Este 11 Este 0.3 899.6 -0.2 83
2018-06-06 01:00:00 10 6 Sudeste 12 Este 0 900.1 0.7 75
2018-06-06 00:00:00 10.3 8 Sudeste 19 Este 0 900 1 71
2018-06-05 23:00:00 10.7 2 Nordeste 11 Este 0 899.8 0.9 62
2018-06-05 22:00:00 10.8 6 Oeste 19 Oeste 0 899.4 0.8 60
2018-06-05 21:00:00 13.2 0 Calma 16 Oeste 0 899 0.3 53
2018-06-05 20:00:00 13.4 9 Oeste 23 Oeste 0 898.9 0.2 53
2018-06-05 19:00:00 13.2 12 Oeste 25 Oeste 0 898.6 -0.3 46
2018-06-05 18:00:00 14.6 10 Oeste 29 Oeste 0 898.7 -0.2 42
2018-06-05 17:00:00 16.7 12 Oeste 26 Oeste 0 898.7 -0.6 39
2018-06-05 16:00:00 15.3 10 Oeste 21 Oeste 0 898.9 -0.6 45
2018-06-05 15:00:00 15 5 Sur 18 Este 0 898.9 -1 41
2018-06-05 14:00:00 13.6 8 Este 21 Este 0 899.3 -0.6 57
2018-06-05 13:00:00 13.6 11 Sudeste 26 Sur 0 899.5 -0.6 57
2018-06-05 12:00:00 12.2 7 Sudeste 19 Sur 0 899.9 0 60
2018-06-05 11:00:00 11.9 8 Sudeste 17 Sudeste 0 899.9 0.2 64
2018-06-05 10:00:00 11.8 6 Sur 13 Sur 0 900.1 0.6 70
2018-06-05 09:00:00 10 4 Sudoeste 9 Sudoeste 0 899.9 0.8 81
2018-06-05 08:00:00 9 4 Oeste 9 Oeste 0 899.7 0.1 85
2018-06-05 07:00:00 8.6 0 Calma 14 Este 0 899.5 -0.1 83
2018-06-05 06:00:00 8.8 8 Este 21 Este 0 899.1 -0.8 83
2018-06-05 05:00:00 9.3 6 Nordeste 12 Nordeste 0 899.6 -0.5 84
2018-06-05 04:00:00 9.5 10 Este 16 Este 0 899.6 -0.6 88
2018-06-05 03:00:00 10.1 10 Sudeste 15 Este 0 899.9 -0.4 79
2018-06-05 02:00:00 9.9 3 Sudeste 13 Oeste 0 900.1 -0.3 76
2018-06-05 01:00:00 10 7 Oeste 24 Oeste 0 900.2 0.4 79
2018-06-05 00:00:00 10.3 12 Oeste 22 Oeste 0 900.3 0.5 77
2018-06-04 23:00:00 11.4 7 Oeste 20 Sudoeste 0 900.4 1 76
2018-06-04 22:00:00 11.7 12 Sudoeste 24 Sudoeste 0 899.8 0.3 72
2018-06-04 21:00:00 12.6 10 Oeste 22 Oeste 0 899.8 0.3 68
2018-06-04 20:00:00 13.9 9 Sudoeste 27 Sudoeste 0 899.4 -0.4 59
2018-06-04 19:00:00 14.6 14 Sudoeste 31 Sudoeste 0 899.5 -0.5 60
2018-06-04 18:00:00 15.5 15 Sudoeste 31 Sudoeste 0 899.5 -0.5 57
2018-06-04 17:00:00 14.2 15 Sudoeste 29 Sudoeste 0 899.8 -0.7 59
2018-06-04 16:00:00 14.8 14 Sudoeste 35 Sudoeste 0 900 -0.9 57
2018-06-04 15:00:00 16.7 10 Sudoeste 28 Sudoeste 0 900 -0.8 50
2018-06-04 14:00:00 15 6 Sur 23 Sur 0 900.5 -0.5 61
2018-06-04 13:00:00 13.3 9 Sur 28 Sudeste 0 900.9 0.2 71
2018-06-04 12:00:00 14.4 9 Sur 30 Sudeste 0 900.8 0.3 74
2018-06-04 11:00:00 12.2 7 Sur 12 Sudeste 0 901 0.8 84
2018-06-04 10:00:00 11.9 7 Sur 13 Sudeste 0 900.7 0.4 86
2018-06-04 09:00:00 10.7 10 Sur 15 Sur 0 900.5 0.5 87
2018-06-04 08:00:00 10 4 Nordeste 7 Este 0 900.2 -0.1 95
2018-06-04 07:00:00 8.3 4 Este 10 Este 0 900.3 0.1 96
2018-06-04 06:00:00 10.3 6 Sudeste 11 Sudeste 0 900 -0.6 94
2018-06-04 05:00:00 11.4 0 Calma 8 Norte 0 900.3 -0.7 93
2018-06-04 04:00:00 11.7 0 Calma 6 Sudoeste 0 900.2 -1.1 91
2018-06-04 03:00:00 11.5 3 Sudoeste 9 Norte 0 900.6 -0.8 88
2018-06-04 02:00:00 11.5 5 Noroeste 9 Noroeste 0 901 -0.4 87
2018-06-04 01:00:00 12.2 4 Noroeste 6 Noroeste 0 901.3 0.4 81
2018-06-04 00:00:00 13.4 0 Calma 5 Nordeste 0 901.4 0.7 75
2018-06-03 23:00:00 13.9 0 Calma 5 Sudoeste 0 901.4 0.8 76
2018-06-03 22:00:00 14.4 4 Noroeste 16 Sudoeste 0 900.9 0.2 74
2018-06-03 21:00:00 15.6 3 Sur 12 Oeste 0 900.7 -0.3 63
2018-06-03 20:00:00 16.3 6 Sudoeste 21 Sudoeste 0 900.6 -0.8 66
2018-06-03 19:00:00 15.7 6 Noroeste 13 Noroeste 0 900.7 -0.6 72
2018-06-03 18:00:00 15 8 Nordeste 22 Oeste 8.1 901 -0.5 83
2018-06-03 17:00:00 13.2 10 Noroeste 30 Oeste 1.2 901.4 -0.6 77
2018-06-03 16:00:00 17.7 10 Sur 25 Sur 0 901.3 -0.9 53
2018-06-03 15:00:00 19.5 14 Sur 29 Sur 0 901.5 -1.1 57
2018-06-03 14:00:00 18.4 10 Sudoeste 20 Sudoeste 0 902 -0.6 61
2018-06-03 13:00:00 17.5 6 Sur 17 Sudeste 0 902.2 -0.5 65
2018-06-03 12:00:00 15.9 5 Sur 12 Sudoeste 0 902.6 0 74
2018-06-03 11:00:00 14.7 4 Sudoeste 10 Sur 0 902.6 -0.2 79
2018-06-03 10:00:00 13.5 6 Sur 10 Sur 0 902.7 0.2 83
2018-06-03 09:00:00 12.6 2 Sudeste 6 Sudeste 0 902.6 0.1 94
2018-06-03 08:00:00 10.4 5 Este 7 Este 0 902.8 0 97
2018-06-03 07:00:00 10.1 0 Calma 6 Noroeste 0 902.5 -0.4 98
2018-06-03 06:00:00 10.5 0 Calma 8 Sudeste 0 902.5 -0.6 94
2018-06-03 05:00:00 10.8 4 Sudeste 9 Sudeste 0 902.8 -0.9 91
2018-06-03 04:00:00 11 2 Nordeste 9 Nordeste 0 902.9 -0.9 93
2018-06-03 03:00:00 10.9 0 Calma 6 Noroeste 0 903.1 -0.4 94
2018-06-03 02:00:00 11.3 4 Sudeste 13 Sudeste 0.1 903.7 0.1 92
2018-06-03 01:00:00 12.7 3 Este 19 Norte 0 903.8 -0.3 71
2018-06-03 00:00:00 12.5 6 Nordeste 17 Norte 0 903.5 -0.5 77
2018-06-02 23:00:00 11.8 9 Norte 24 Norte 0.2 903.6 0.7 88
2018-06-02 22:00:00 12 4 Noroeste 24 Sur 0.1 904.1 1.7 83
2018-06-02 21:00:00 12.7 18 Sur 32 Sudeste 0 904 1.5 76
2018-06-02 20:00:00 15.7 13 Oeste 38 Sudoeste 0 902.9 0.1 62
2018-06-02 19:00:00 16.6 16 Sudoeste 37 Sudoeste 0 902.4 -0.7 50
2018-06-02 18:00:00 20.2 4 Este 18 Sudeste 0 902.5 -1.1 38
2018-06-02 17:00:00 19.9 9 Sudeste 20 Sudeste 0 902.8 -1.3 39
2018-06-02 16:00:00 19.3 9 Este 24 Este 0 903.1 -1.5 41
2018-06-02 15:00:00 18.7 7 Este 19 Este 0 903.6 -1.1 44
2018-06-02 14:00:00 17.8 3 Nordeste 16 Este 0 904.1 -0.6 47
2018-06-02 13:00:00 17.8 7 Sudeste 14 Este 0 904.6 -0.1 50
2018-06-02 12:00:00 16.7 2 Este 12 Nordeste 0 904.7 -0.2 52
2018-06-02 11:00:00 13.9 5 Nordeste 19 Norte 0 904.7 0.2 75
2018-06-02 10:00:00 11.7 8 Nordeste 24 Norte 0.2 904.7 0.6 96
2018-06-02 09:00:00 11.2 14 Nordeste 24 Nordeste 0.2 904.9 1 90
2018-06-02 08:00:00 11.3 5 Oeste 12 Oeste 0 904.5 0 81
2018-06-02 07:00:00 12.2 4 Nordeste 16 Norte 0 904.1 -0.3 73
2018-06-02 06:00:00 11.5 8 Norte 18 Norte 0 903.9 -0.6 81
2018-06-02 05:00:00 12 7 Oeste 32 Oeste 0 904.5 0 78
2018-06-02 04:00:00 11.6 10 Nordeste 32 Nordeste 0 904.4 -0.8 83
2018-06-02 03:00:00 11.3 9 Nordeste 40 Este 0 904.5 -0.2 88
2018-06-02 02:00:00 11.4 32 Nordeste 49 Este 0.3 904.5 0.2 92
2018-06-02 01:00:00 12.3 17 Nordeste 53 Nordeste 0 905.2 1.5 85
2018-06-02 00:00:00 13.4 34 Este 50 Nordeste 0 904.7 1.7 72
2018-06-01 23:00:00 14.2 25 Este 39 Nordeste 0 904.3 1.4 60
2018-06-01 22:00:00 15.7 4 Nordeste 13 Nordeste 0 903.7 1 53
2018-06-01 21:00:00 17.5 5 Oeste 16 Oeste 0 903 0.1 47
2018-06-01 20:00:00 18.3 8 Sudoeste 17 Oeste 0 902.9 -0.5 43
2018-06-01 19:00:00 19 8 Sudoeste 21 Sudoeste 0 902.7 -1.1 42
2018-06-01 18:00:00 19.5 11 Sudoeste 22 Sur 0 902.9 -1.4 42
2018-06-01 17:00:00 18.6 8 Sur 20 Sudoeste 0 903.4 -1.4 44
2018-06-01 16:00:00 19.3 13 Sudoeste 26 Sudoeste 0 903.8 -1.4 45
2018-06-01 15:00:00 18.5 9 Sudoeste 25 Sudoeste 0 904.3 -0.9 49
2018-06-01 14:00:00 18.1 10 Sur 24 Sur 0 904.8 -0.4 50
2018-06-01 13:00:00 17.3 10 Sur 27 Sur 0 905.2 0 55
2018-06-01 12:00:00 17.1 13 Sudeste 35 Sudeste 0 905.2 0 55
2018-06-01 11:00:00 17.3 6 Sudeste 15 Este 0 905.2 0 58
2018-06-01 10:00:00 16 5 Sur 9 Sur 0 905.2 0.1 64
2018-06-01 09:00:00 14.8 3 Nordeste 9 Nordeste 0 905.2 0.5 69
2018-06-01 08:00:00 11.6 0 Calma 6 Sudeste 0 905.2 0.6 76
2018-06-01 07:00:00 11.2 3 Sudeste 5 Norte 0 905.1 0.2 72
2018-06-01 06:00:00 11.2 3 Norte 6 Norte 0 904.7 -0.2 72
2018-06-01 05:00:00 12.3 4 Sudeste 6 Sudeste 0 904.6 -0.4 69
2018-06-01 04:00:00 12.4 2 Este 6 Este 0 904.9 -0.3 67
2018-06-01 03:00:00 12.4 5 Este 8 Este 0 904.9 -0.4 67
2018-06-01 02:00:00 12.2 3 Norte 7 Noroeste 0 905 -0.4 67
2018-06-01 01:00:00 12.2 4 Noroeste 6 Noroeste 0 905.2 0.3 70
2018-06-01 00:00:00 12.7 4 Noroeste 8 Oeste 0 905.3 0.8 68
2018-05-31 23:00:00 13.5 4 Oeste 10 Oeste 0 905.4 1.3 58
2018-05-31 22:00:00 14.7 5 Oeste 14 Sudoeste 0 904.9 0.9 51
2018-05-31 21:00:00 16.6 8 Sudoeste 16 Sudoeste 0 904.5 0.3 42
2018-05-31 20:00:00 18.5 8 Sudoeste 19 Sudoeste 0 904.1 -0.1 38
2018-05-31 19:00:00 18.7 10 Sudoeste 25 Sudoeste 0 904 -0.5 38
2018-05-31 18:00:00 18.4 10 Sudoeste 24 Sudoeste 0 904.2 -0.5 39
2018-05-31 17:00:00 18.8 9 Sudoeste 31 Sudoeste 0 904.2 -0.7 41
2018-05-31 16:00:00 18.7 10 Sudoeste 24 Sudoeste 0 904.5 -0.5 43
2018-05-31 15:00:00 18.6 10 Sudoeste 22 Sudoeste 0 904.7 -0.4 45
2018-05-31 14:00:00 17.8 9 Sur 22 Sudoeste 0 904.9 0.1 53
2018-05-31 13:00:00 15.7 7 Sudoeste 14 Sudoeste 0 905 0.2 62
2018-05-31 12:00:00 15.5 8 Sur 23 Este 0 905.1 0.7 62
2018-05-31 11:00:00 14.8 6 Sudeste 14 Sudeste 0 904.8 1 68
2018-05-31 10:00:00 13.3 10 Este 14 Este 0 904.8 1.5 78
2018-05-31 09:00:00 12.2 6 Este 9 Este 0 904.4 1.4 89
2018-05-31 08:00:00 11.3 0 Calma -- -- 0 903.8 1 97
2018-05-31 07:00:00 10.6 0 Calma 7 Nordeste 0 903.3 0.5 95
2018-05-31 06:00:00 11 3 Nordeste 6 Este 0 903 0.2 94
2018-05-31 05:00:00 11.4 4 Este 9 Este 0 902.8 0 94
2018-05-31 04:00:00 11.6 6 Este 8 Este 0 902.8 -0.1 94
2018-05-31 03:00:00 11.6 3 Este 8 Sudeste 0 902.8 -0.1 93
2018-05-31 02:00:00 11.7 4 Sur 5 Sur 0 902.8 0.2 92
2018-05-31 01:00:00 12 3 Noroeste 10 Este 0 902.9 0.9 91
2018-05-31 00:00:00 12.4 2 Nordeste 45 Sudeste 0 902.9 1.4 86
2018-05-30 23:00:00 12.3 3 Este 12 Este 0 902.6 1.4 91
2018-05-30 22:00:00 12.5 0 Calma 5 Noroeste 0 902 1.4 87
2018-05-30 21:00:00 12.8 4 Oeste 8 Oeste 0 901.5 0.7 81
2018-05-30 20:00:00 12.8 5 Oeste 13 Oeste 0 901.2 0.6 84
2018-05-30 19:00:00 13.6 3 Sudoeste 33 Sudoeste 0.6 900.6 -0.4 87
2018-05-30 18:00:00 14.4 9 Sudoeste 22 Sudoeste 0 900.8 -0.4 76
2018-05-30 17:00:00 13.4 8 Sudoeste 20 Sudoeste 0.4 900.6 -0.6 85
2018-05-30 16:00:00 13 8 Sudoeste 18 Sudoeste 0.9 901 -0.2 91
2018-05-30 15:00:00 13 9 Sudoeste 19 Sudoeste 0.6 901.2 0 85
2018-05-30 14:00:00 13.8 5 Sur 15 Sudeste 0 901.2 0.3 78
2018-05-30 13:00:00 12.6 5 Sudeste 18 Sudeste 0 901.2 0.4 88
2018-05-30 12:00:00 11.5 8 Sur 12 Sudeste 1.7 901.2 0.7 99
2018-05-30 11:00:00 10.5 6 Sudeste 12 Sudeste 0.6 900.9 1 99
2018-05-30 10:00:00 10.2 6 Sudeste 12 Este 0 900.8 1.4 99
2018-05-30 09:00:00 10.2 6 Sudeste 13 Sudeste 0 900.5 1.1 99
2018-05-30 08:00:00 9.5 4 Este 8 Sudeste 0 899.9 0.1 99
2018-05-30 07:00:00 9.7 2 Nordeste 7 Nordeste 0 899.4 -0.7 99
2018-05-30 06:00:00 9.7 2 Sur 8 Noroeste 0.1 899.4 -0.8 99
2018-05-30 05:00:00 9.9 4 Noroeste 10 Sudoeste 1.1 899.8 -0.7 99
2018-05-30 04:00:00 10.1 6 Sudoeste 10 Sudoeste 0.1 900.1 -0.7 99
2018-05-30 03:00:00 10.1 0 Calma 6 Noroeste 0 900.2 -0.6 99
2018-05-30 02:00:00 10.7 0 Calma 5 Sudoeste 0 900.5 -0.4 98
2018-05-30 01:00:00 10.7 0 Calma 14 Este 0 900.8 0.4 95
2018-05-30 00:00:00 11.2 5 Este 23 Este 0 900.8 0.9 95
2018-05-29 23:00:00 11.3 6 Este 19 Este 0 900.9 1.5 94
2018-05-29 22:00:00 11.7 2 Sur 5 Sudeste 0 900.4 0.5 87
2018-05-29 21:00:00 12.1 5 Sur 8 Sur 0 899.9 -0.6 84
2018-05-29 20:00:00 12.5 2 Este 8 Este 0 899.4 -0.9 81
2018-05-29 19:00:00 11.9 5 Este 18 Sudeste 0 899.9 -0.1 87
2018-05-29 18:00:00 12.3 9 Sudeste 15 Sudeste 0.1 900.5 0.1 81
2018-05-29 17:00:00 13.3 6 Sudoeste 26 Oeste 0.2 900.3 -0.1 62
2018-05-29 16:00:00 13.8 12 Oeste 21 Oeste 0.1 900 -0.7 63
2018-05-29 15:00:00 12.7 4 Oeste 26 Oeste 0 900.4 -0.5 64
2018-05-29 14:00:00 13.2 10 Oeste 30 Sudoeste 0 900.4 -0.7 55
2018-05-29 13:00:00 17 9 Este 24 Este 0 900.7 -0.6 60
2018-05-29 12:00:00 14.9 3 Sudoeste 11 Sudeste 0 900.9 -0.1 72
2018-05-29 11:00:00 13.8 0 Calma 8 Este 0 901.1 0.1 89
2018-05-29 10:00:00 12 3 Sudeste 6 Este 0 901.3 0.6 96
2018-05-29 09:00:00 11.6 0 Calma 5 Oeste 0 901 0.4 96
2018-05-29 08:00:00 10.9 3 Sur 8 Sur 0 901 0.4 96
2018-05-29 07:00:00 10.5 0 Calma 7 Nordeste 0 900.7 -0.3 98
2018-05-29 06:00:00 10.4 3 Norte 8 Norte 0 900.6 -0.7 99
2018-05-29 05:00:00 10.1 3 Noroeste 13 Norte 0 900.6 -0.9 99
2018-05-29 04:00:00 9.9 3 Noroeste 6 Noroeste 0 901 -0.7 97
2018-05-29 03:00:00 9.8 0 Calma 7 Noroeste 0 901.3 0 94
2018-05-29 02:00:00 10.3 5 Norte 11 Sudeste 0 901.5 0.2 91
2018-05-29 01:00:00 11 8 Sudeste 21 Este 0 901.7 0.9 88
2018-05-29 00:00:00 11.4 6 Noroeste 37 Sudeste 0 901.3 0.5 91
2018-05-28 23:00:00 11.7 6 Sudeste 29 Sudeste 0 901.3 0.7 86
2018-05-28 22:00:00 11.6 4 Norte 13 Este 0 900.8 0.8 92
2018-05-28 21:00:00 12.1 8 Sudeste 17 Sudeste 0.2 900.8 1.1 93
2018-05-28 20:00:00 12 13 Sudeste 23 Este 2.3 900.6 1 91
2018-05-28 19:00:00 14.4 15 Este 23 Este 0 900 0.4 77
2018-05-28 18:00:00 14.9 3 Oeste 16 Oeste 0 899.7 -0.3 68
2018-05-28 17:00:00 16.8 9 Oeste 22 Oeste 0 899.6 -0.8 60
2018-05-28 16:00:00 14.9 12 Oeste 27 Oeste 0 899.6 -1 68
2018-05-28 15:00:00 16.5 3 Sur 30 Sudeste 0 900 -0.9 65
2018-05-28 14:00:00 15.7 5 Sur 15 Sudeste 0 900.4 -0.6 71
2018-05-28 13:00:00 14.1 3 Sur 17 Sur 0 900.6 -0.4 87
2018-05-28 12:00:00 13.5 2 Sur 8 Sur 0 900.9 0 94
2018-05-28 11:00:00 12.7 3 Sudeste 9 Sudeste 0 901 0.4 99
2018-05-28 10:00:00 11.9 0 Calma 10 Noroeste 0 901 0.4 99
2018-05-28 09:00:00 11.3 4 Noroeste 8 Norte 0.1 900.9 0.7 99
2018-05-28 08:00:00 11.1 2 Noroeste 5 Noroeste 0.8 900.6 0.5 99
2018-05-28 07:00:00 11.2 0 Calma 5 Sudeste 0.4 900.6 0.4 99
2018-05-28 06:00:00 11 0 Calma 5 Norte 0 900.2 -0.3 99
2018-05-28 05:00:00 11 2 Norte 9 Este 0 900.1 -0.9 99
2018-05-28 04:00:00 11.2 6 Este 10 Este 0 900.2 -0.9 99
2018-05-28 03:00:00 11.6 9 Este 14 Este 0.1 900.5 -1.2 99
2018-05-28 02:00:00 11.1 0 Calma 12 Oeste 0 901 -0.6 99
2018-05-28 01:00:00 11.1 2 Noroeste 12 Norte 0.3 901.1 0 99
2018-05-28 00:00:00 11.4 5 Noroeste 18 Este 4.9 901.7 1.8 99
2018-05-27 23:00:00 11.6 17 Este 39 Nordeste 7.8 901.6 1.8 98
2018-05-27 22:00:00 12.9 25 Este 45 Nordeste 1 901.1 1.7 94
2018-05-27 21:00:00 14.1 4 Noroeste 17 Oeste 0 899.9 0.2 67
2018-05-27 20:00:00 14 9 Noroeste 22 Noroeste 0 899.8 0.3 66
2018-05-27 19:00:00 15.2 10 Noroeste 22 Noroeste 0.8 899.4 -0.3 64
2018-05-27 18:00:00 17.9 10 Norte 21 Noroeste 0 899.7 -0.5 42
2018-05-27 17:00:00 19.4 7 Sudoeste 17 Sudoeste 0 899.5 -1.4 41
2018-05-27 16:00:00 20.7 7 Sudoeste 26 Sudoeste 0 899.7 -1.9 37
2018-05-27 15:00:00 20.5 8 Sur 19 Sur 0 900.2 -1.6 40
2018-05-27 14:00:00 19.6 8 Sudoeste 21 Sur 0 900.9 -1 42
2018-05-27 13:00:00 19.4 8 Sudeste 18 Sudeste 0 901.6 0 43
2018-05-27 12:00:00 18.5 6 Sur 15 Sudeste 0 901.8 0.3 45
2018-05-27 11:00:00 17.8 7 Sudeste 14 Sudeste 0 901.9 0.7 51
2018-05-27 10:00:00 17.9 6 Sudeste 10 Este 0 901.6 0.5 51
2018-05-27 09:00:00 15.9 0 Calma 9 Norte 0 901.5 0.7 57
2018-05-27 08:00:00 13 6 Norte 10 Norte 0 901.2 0.6 59
2018-05-27 07:00:00 11.9 0 Calma 8 Noroeste 0 901.1 0.4 60
2018-05-27 06:00:00 11.6 4 Noroeste 8 Noroeste 0 900.8 0 61
2018-05-27 05:00:00 11.2 4 Norte 10 Norte 0 900.6 -0.5 62
2018-05-27 04:00:00 11.4 5 Norte 12 Norte 0 900.7 -0.6 61
2018-05-27 03:00:00 11.8 4 Norte 8 Norte 0 900.8 -0.8 59
2018-05-27 02:00:00 12.6 4 Norte 7 Norte 0 901.1 -0.2 56
2018-05-27 01:00:00 12.3 5 Norte 9 Norte 0 901.3 0.7 59
2018-05-27 00:00:00 12.9 4 Noroeste 5 Noroeste 0 901.6 1.1 55
2018-05-26 23:00:00 13 3 Noroeste 9 Oeste 0 901.3 1.1 54
2018-05-26 22:00:00 14.2 5 Oeste 9 Oeste 0 900.6 0.4 52
2018-05-26 21:00:00 16.3 5 Sudoeste 16 Sudoeste 0 900.5 0.2 45
2018-05-26 20:00:00 17.5 8 Sudoeste 15 Sudoeste 0 900.2 -0.2 42
2018-05-26 19:00:00 17.2 6 Sudoeste 20 Sudoeste 0 900.2 -0.4 44
2018-05-26 18:00:00 18.3 9 Sudoeste 22 Sudoeste 0 900.3 -0.5 42
2018-05-26 17:00:00 18.2 9 Sur 22 Sudoeste 0 900.4 -0.2 43
2018-05-26 16:00:00 16.6 8 Sur 22 Sur 0 900.6 -0.1 46
2018-05-26 15:00:00 17.6 8 Sudoeste 24 Sur 0 900.8 -0.1 47
2018-05-26 14:00:00 16.2 8 Sudoeste 24 Sudeste 0 900.6 -0.1 55
2018-05-26 13:00:00 15.4 9 Sur 21 Sur 0 900.7 -0.1 61
2018-05-26 12:00:00 13.5 9 Sur 18 Sudeste 0 900.9 0.3 70
2018-05-26 11:00:00 12.8 2 Sudoeste 7 Sudoeste 0 900.7 0.3 76
2018-05-26 10:00:00 11.4 4 Sur 8 Sudeste 0 900.8 0.9 92
2018-05-26 09:00:00 10.5 3 Sudeste 8 Este 0 900.6 1.2 97
2018-05-26 08:00:00 9.9 6 Este 9 Sudeste 0 900.4 0.7 96
2018-05-26 07:00:00 9.6 3 Sudeste 6 Este 0 899.9 0 91
2018-05-26 06:00:00 9.3 0 Calma 7 Noroeste 0 899.4 -0.8 93
2018-05-26 05:00:00 9.3 0 Calma 4 Noroeste 0 899.7 -0.8 92
2018-05-26 04:00:00 9.5 0 Calma 6 Este 0 899.9 -0.4 89
2018-05-26 03:00:00 9.9 3 Este 7 Sudeste 0 900.2 -0.2 88
2018-05-26 02:00:00 10.1 4 Este 8 Este 0 900.5 0 88
2018-05-26 01:00:00 9.9 0 Calma 8 Oeste 0 900.3 0.5 89
2018-05-26 00:00:00 9.6 5 Oeste 9 Oeste 0 900.4 0.5 96
2018-05-25 23:00:00 10.2 0 Calma 19 Norte 0 900.5 1 91
2018-05-25 22:00:00 10.6 4 Nordeste 18 Sudoeste 3.3 899.8 0.8 88
2018-05-25 21:00:00 11 6 Oeste 19 Noroeste 0 899.9 0.6 89
2018-05-25 20:00:00 10.7 11 Oeste 30 Oeste 0.6 899.5 -0.1 86
2018-05-25 19:00:00 14.8 4 Sur 17 Este 0 899 -0.8 59
2018-05-25 18:00:00 16.8 7 Sudeste 15 Sudeste 0 899.3 -0.5 55
2018-05-25 17:00:00 15.1 4 Sur 14 Oeste 0 899.6 -0.7 61
2018-05-25 16:00:00 15.1 5 Sudeste 11 Sur 0 899.8 -0.7 64
2018-05-25 15:00:00 13.1 5 Noroeste 15 Oeste 0 899.8 -0.4 81
2018-05-25 14:00:00 11.3 5 Oeste 19 Oeste 0 900.3 -0.2 91
2018-05-25 13:00:00 11 7 Oeste 16 Oeste 0 900.5 -0.7 91
2018-05-25 12:00:00 10.7 6 Oeste 12 Oeste 0 900.2 -1.1 99
2018-05-25 11:00:00 9.8 8 Noroeste 14 Noroeste 1.4 900.5 0 99
2018-05-25 10:00:00 9.6 6 Noroeste 19 Noroeste 2.5 901.2 -- 99
2018-05-25 09:00:00 10.1 5 Noroeste 13 Noroeste 2.8 901.3 -- 99
2018-05-25 08:00:00 10.3 6 Nordeste -- -- -- 900.5 1.4 99
2018-05-25 07:00:00 -- -- -- -- -- -- -- -- --
2018-05-25 06:00:00 -- -- -- -- -- -- -- -- --
2018-05-25 05:00:00 11.3 6 Este 31 Noroeste 0.8 899.1 -1.9 96
2018-05-25 04:00:00 11.3 4 Sudoeste 26 Sur 6 901.6 0.4 99
2018-05-25 03:00:00 11.2 6 Oeste 24 Oeste 4.8 900.8 1 96
2018-05-25 02:00:00 11.6 9 Noroeste 32 Noroeste 1.2 901 0.7 94
2018-05-25 01:00:00 13.9 14 Sudoeste 35 Sudoeste 0 901.2 1.3 82
2018-05-25 00:00:00 16.7 21 Sudeste 36 Sudeste 0 899.8 1.2 54
2018-05-24 23:00:00 17.4 19 Sudeste 29 Sudeste 0.1 900.3 2 55
2018-05-24 22:00:00 17.2 8 Oeste 41 Este 0 899.9 1.3 55
2018-05-24 21:00:00 20 23 Sudeste 35 Sudeste 0 898.6 -0.5 44
2018-05-24 20:00:00 20.3 21 Sudeste 35 Sudeste 0 898.3 -1.7 39
2018-05-24 19:00:00 22 14 Este 31 Este 0 898.6 -1.9 35
2018-05-24 18:00:00 23.7 14 Este 25 Este 0 899.1 -2.2 35
2018-05-24 17:00:00 23 16 Este 34 Nordeste 0 900 -2.7 37
2018-05-24 16:00:00 21.2 10 Este 21 Este 0 900.5 -2.9 41
2018-05-24 15:00:00 21.3 9 Norte 27 Norte 0 901.3 -2.2 42
2018-05-24 14:00:00 19.1 3 Sudeste 19 Sudeste 0 902.7 0 47
2018-05-24 13:00:00 17.8 4 Sur 30 Sudeste 0 903.4 0.2 52
2018-05-24 12:00:00 18.7 13 Sur 34 Sudeste 0 903.5 -0.1 51
2018-05-24 11:00:00 19.8 5 Nordeste 14 Nordeste 0 902.7 -0.6 51
2018-05-24 10:00:00 16.9 6 Norte 14 Noroeste 0 903.2 0.7 62
2018-05-24 09:00:00 15.9 4 Norte 17 Este 0 903.6 0.6 71
2018-05-24 08:00:00 13.9 5 Sudeste 22 Este 0 903.3 -0.3 73
2018-05-24 07:00:00 13 13 Nordeste 25 Nordeste 0 902.5 -0.5 78
2018-05-24 06:00:00 12.9 9 Norte 22 Noroeste 0.4 903 -0.5 78
2018-05-24 05:00:00 14.6 5 Nordeste 19 Nordeste 0 903.6 0.4 65
2018-05-24 04:00:00 14.8 6 Nordeste 17 Este 0 903 -0.4 62
2018-05-24 03:00:00 14.6 3 Nordeste 8 Nordeste 0 903.5 0.1 61
2018-05-24 02:00:00 14 6 Nordeste 14 Este 0 903.2 0.2 65
2018-05-24 01:00:00 14.6 2 Oeste 8 Oeste 0 903.4 0.7 62
2018-05-24 00:00:00 14.5 5 Noroeste 8 Noroeste 0 903.4 0.7 64
2018-05-23 23:00:00 15.5 6 Norte 13 Norte 0 903 1.3 60
2018-05-23 22:00:00 15.2 7 Norte 13 Sudeste 0 902.7 1 62
2018-05-23 21:00:00 15.5 10 Sudoeste 48 Sudoeste 0 902.7 0.6 65
2018-05-23 20:00:00 20.9 5 Sur 19 Sudeste 0 901.7 -0.5 39
2018-05-23 19:00:00 21 7 Sur 21 Sur 0 901.7 -0.8 39
2018-05-23 18:00:00 21.9 9 Sur 23 Sudeste 0 902.1 -0.9 37
2018-05-23 17:00:00 22.6 10 Sudoeste 26 Sur 0 902.2 -1.3 37
2018-05-23 16:00:00 23.2 12 Sur 23 Sudeste 0 902.5 -1.6 38
2018-05-23 15:00:00 22.8 9 Sur 30 Sudeste 0 903 -1 40
2018-05-23 14:00:00 21.5 12 Sur 33 Sudeste 0 903.5 -0.5 47
2018-05-23 13:00:00 20.5 7 Sur 15 Sudeste 0 904.1 0.1 51
2018-05-23 12:00:00 19.7 6 Sudeste 18 Este 0 904 0.2 55
2018-05-23 11:00:00 19.4 5 Sudeste 13 Este 0 904 0.5 57
2018-05-23 10:00:00 18 9 Sudeste 14 Este 0 904 0.9 60
2018-05-23 09:00:00 16.5 6 Sudeste 10 Norte 0 903.8 0.8 64
2018-05-23 08:00:00 13.4 6 Norte 10 Norte 0 903.5 0.4 73
2018-05-23 07:00:00 12.6 4 Noroeste 7 Noroeste 0 903.1 -0.1 73
2018-05-23 06:00:00 13.1 4 Nordeste 6 Nordeste 0 903 -0.4 71
2018-05-23 05:00:00 13.3 3 Nordeste 10 Norte 0 903.1 -0.1 72
2018-05-23 04:00:00 13.5 3 Noroeste 8 Este 0 903.2 -0.3 72
2018-05-23 03:00:00 14.3 0 Calma 10 Noroeste 0 903.4 0.1 68
2018-05-23 02:00:00 13.7 5 Noroeste 8 Norte 0 903.2 0.3 72
2018-05-23 01:00:00 14.1 4 Noroeste 14 Sudeste 0 903.5 1.2 66
2018-05-23 00:00:00 16 7 Nordeste 13 Sudeste 0 903.3 1.5 59
2018-05-22 23:00:00 15.8 2 Este 18 Este 0 902.9 1.1 60
2018-05-22 22:00:00 16 0 Calma 6 Norte 0 902.3 0.7 56
2018-05-22 21:00:00 17.1 0 Calma 12 Este 0 901.8 0.1 55
2018-05-22 20:00:00 17.7 3 Este 12 Norte 0 901.8 0 53
2018-05-22 19:00:00 17.5 4 Norte 11 Noroeste 0 901.6 -0.5 52
2018-05-22 18:00:00 18.3 2 Nordeste 10 Sudoeste 0 901.7 -0.4 52
2018-05-22 17:00:00 17.9 4 Sudoeste 13 Oeste 0 901.8 0 50
2018-05-22 16:00:00 17.2 5 Oeste 18 Oeste 0 902.1 0.2 58
2018-05-22 15:00:00 15.8 12 Oeste 28 Oeste 0 902.1 0.3 66
2018-05-22 14:00:00 18.4 2 Oeste 13 Este 0 901.8 0.1 57
2018-05-22 13:00:00 18.8 5 Sudeste 27 Sudeste 0.1 901.9 0.4 61
2018-05-22 12:00:00 17.7 4 Sudeste 17 Norte 0 901.8 0.5 66
2018-05-22 11:00:00 15.8 6 Sur 16 Sudeste 0 901.7 0.7 75
2018-05-22 10:00:00 14 4 Sudeste 11 Sur 0 901.5 1.3 83
2018-05-22 09:00:00 11.9 4 Sudeste 8 Este 0 901.3 1.4 93
2018-05-22 08:00:00 10.7 5 Este 8 Nordeste 0 901 1 93
2018-05-22 07:00:00 10.5 0 Calma 5 Sur 0 900.2 -0.1 90
2018-05-22 06:00:00 11.1 0 Calma 5 Oeste 0 899.9 -0.5 87
2018-05-22 05:00:00 11.4 2 Oeste 4 Oeste 0 900 -0.6 86
2018-05-22 04:00:00 11.1 0 Calma 8 Noroeste 0 900.3 -0.5 87
2018-05-22 03:00:00 11.8 0 Calma 4 Sudeste 0 900.4 -0.5 83
2018-05-22 02:00:00 11.7 0 Calma 7 Nordeste 0 900.6 0.3 85
2018-05-22 01:00:00 11.9 5 Nordeste 16 Este 0 900.8 1.6 88
2018-05-22 00:00:00 12.3 10 Nordeste 58 Sudeste 0.1 900.9 2.1 87